Time;durP1;ratioP1;P1;durP2;ratioP2;P2;SDS_P1;SDS_P2;PMS_P1;PMS_P2;Temp;Humidity;BMP_temperature;BMP_pressure;BME280_temperature;BME280_humidity;BME280_pressure;Samples;Min_cycle;Max_cycle;Signal;HPM_P1;HPM_P2
2023/03/04 00:00:04;;;;;;;9.25;4.32;;;-0.40;99.90;;;;;;5074826;28;20048;-77
2023/03/04 00:02:37;;;;;;;8.65;4.28;;;-0.30;99.90;;;;;;5082942;28;20080;-77
2023/03/04 00:05:06;;;;;;;6.68;3.55;;;-0.30;99.90;;;;;;5074989;28;20134;-78
2023/03/04 00:07:34;;;;;;;6.70;3.58;;;-0.30;99.90;;;;;;5078898;28;20059;-78
2023/03/04 00:10:03;;;;;;;4.88;3.20;;;-0.30;99.90;;;;;;5089199;28;20052;-77
2023/03/04 00:12:31;;;;;;;9.80;3.22;;;-0.20;99.90;;;;;;5074171;28;20040;-78
2023/03/04 00:14:58;;;;;;;5.97;3.40;;;-0.20;99.90;;;;;;5087628;28;20554;-77
2023/03/04 00:17:25;;;;;;;8.25;2.67;;;-0.10;99.90;;;;;;5069722;28;20075;-77
2023/03/04 00:19:53;;;;;;;7.97;3.17;;;-0.10;99.90;;;;;;5072946;28;20122;-77
2023/03/04 00:22:20;;;;;;;6.10;2.60;;;-0.10;99.90;;;;;;5073830;28;20109;-76
2023/03/04 00:24:48;;;;;;;7.35;2.90;;;-0.10;99.90;;;;;;5091675;28;20144;-77
2023/03/04 00:27:16;;;;;;;7.40;2.65;;;-0.10;99.90;;;;;;5078303;28;20437;-77
2023/03/04 00:29:44;;;;;;;8.13;3.00;;;-0.10;99.90;;;;;;5052238;28;20040;-77
2023/03/04 00:32:11;;;;;;;5.28;3.15;;;-0.10;99.90;;;;;;5054934;28;20040;-76
2023/03/04 00:34:39;;;;;;;6.78;3.08;;;-0.10;99.90;;;;;;5060685;28;20087;-76
2023/03/04 00:37:06;;;;;;;4.85;3.22;;;-0.10;99.90;;;;;;5072108;28;20446;-75
2023/03/04 00:39:34;;;;;;;7.22;3.65;;;-0.10;99.90;;;;;;5072371;28;20045;-76
2023/03/04 00:42:01;;;;;;;11.93;3.42;;;0.00;99.90;;;;;;5072561;28;20080;-76
2023/03/04 00:44:30;;;;;;;10.30;2.80;;;0.00;99.90;;;;;;5072940;28;20516;-76
2023/03/04 00:46:58;;;;;;;8.02;2.65;;;0.00;99.90;;;;;;5080709;28;20059;-76
2023/03/04 00:49:25;;;;;;;7.82;3.40;;;0.00;99.90;;;;;;5089715;28;20044;-76
2023/03/04 00:51:53;;;;;;;9.30;3.50;;;0.00;99.90;;;;;;5064123;28;20129;-75
2023/03/04 00:54:20;;;;;;;10.57;3.80;;;0.00;99.90;;;;;;5065048;28;20058;-75
2023/03/04 00:56:47;;;;;;;8.57;3.83;;;0.00;99.90;;;;;;5073351;28;20424;-76
2023/03/04 00:59:15;;;;;;;8.65;3.78;;;0.00;99.90;;;;;;5053681;28;20060;-76
2023/03/04 01:01:44;;;;;;;7.95;3.45;;;0.00;99.90;;;;;;5072006;28;20057;-75
2023/03/04 01:04:11;;;;;;;8.63;3.33;;;0.00;99.90;;;;;;5056275;28;20048;-75
2023/03/04 01:06:39;;;;;;;8.23;3.50;;;0.00;99.90;;;;;;5075568;28;20052;-75
2023/03/04 01:09:07;;;;;;;5.25;3.00;;;0.00;99.90;;;;;;5063398;28;20140;-76
2023/03/04 01:11:34;;;;;;;8.90;3.75;;;0.00;99.90;;;;;;5071287;28;20098;-77
2023/03/04 01:14:02;;;;;;;8.30;3.70;;;0.00;99.90;;;;;;5069254;28;20055;-76
2023/03/04 01:16:29;;;;;;;6.93;3.22;;;0.10;99.90;;;;;;5077028;28;20045;-80
2023/03/04 01:18:58;;;;;;;10.00;3.85;;;0.00;99.90;;;;;;5078002;28;20396;-82
2023/03/04 01:21:25;;;;;;;8.43;2.97;;;0.00;99.90;;;;;;5053632;28;20049;-81
2023/03/04 01:23:53;;;;;;;9.82;3.08;;;0.00;99.90;;;;;;5038922;28;20098;-80
2023/03/04 01:26:20;;;;;;;7.88;3.10;;;0.00;99.90;;;;;;5112882;28;20055;-80
2023/03/04 01:28:48;;;;;;;6.57;3.00;;;0.00;99.90;;;;;;5077591;28;20097;-82
2023/03/04 01:31:15;;;;;;;8.98;3.30;;;0.00;99.90;;;;;;5084678;28;20526;-80
2023/03/04 01:33:43;;;;;;;6.40;2.45;;;0.00;99.90;;;;;;5072327;28;20730;-81
2023/03/04 01:36:12;;;;;;;5.05;2.95;;;0.00;99.90;;;;;;5057817;28;20040;-81
2023/03/04 01:38:40;;;;;;;3.53;2.40;;;0.00;99.90;;;;;;5056774;28;20424;-81
2023/03/04 01:41:08;;;;;;;5.28;2.50;;;0.00;99.90;;;;;;5067692;28;20075;-80
2023/03/04 01:43:37;;;;;;;8.00;2.88;;;-0.10;99.90;;;;;;5092038;28;20508;-81
2023/03/04 01:46:06;;;;;;;3.70;2.40;;;-0.10;99.90;;;;;;5068614;28;20132;-81
2023/03/04 01:48:37;;;;;;;8.45;3.42;;;-0.10;99.90;;;;;;5070715;28;20044;-80
2023/03/04 01:51:11;;;;;;;4.45;2.10;;;-0.10;99.90;;;;;;5084156;28;20093;-81
2023/03/04 01:53:40;;;;;;;5.20;3.17;;;-0.10;99.90;;;;;;5070668;28;20488;-81
2023/03/04 01:56:16;;;;;;;5.30;2.90;;;-0.10;99.90;;;;;;5072782;28;20060;-82
2023/03/04 01:58:44;;;;;;;4.45;2.85;;;-0.20;99.90;;;;;;5068265;28;20041;-79
2023/03/04 02:01:12;;;;;;;5.40;2.55;;;-0.20;99.90;;;;;;5078693;28;20051;-80
2023/03/04 02:03:40;;;;;;;6.30;3.17;;;-0.20;99.90;;;;;;5090921;28;20121;-80
2023/03/04 02:06:07;;;;;;;5.65;3.03;;;-0.20;99.90;;;;;;5059379;28;20512;-81
2023/03/04 02:08:35;;;;;;;4.10;2.72;;;-0.20;99.90;;;;;;5071927;28;20138;-80
2023/03/04 02:11:04;;;;;;;5.38;2.83;;;-0.20;99.90;;;;;;5054481;28;20053;-81
2023/03/04 02:13:33;;;;;;;3.60;2.60;;;-0.20;99.90;;;;;;5072549;28;20056;-79
2023/03/04 02:16:00;;;;;;;7.25;2.85;;;-0.20;99.90;;;;;;5057019;28;20043;-80
2023/03/04 02:18:28;;;;;;;6.45;2.58;;;-0.20;99.90;;;;;;5066239;28;20048;-81
2023/03/04 02:21:07;;;;;;;3.47;2.67;;;-0.20;99.90;;;;;;5075234;28;20143;-80
2023/03/04 02:23:42;;;;;;;4.53;2.38;;;-0.20;99.90;;;;;;5061169;28;20508;-80
2023/03/04 02:26:20;;;;;;;5.45;2.42;;;-0.20;99.90;;;;;;5072926;28;20048;-80
2023/03/04 02:28:53;;;;;;;6.55;2.42;;;-0.20;99.90;;;;;;5070911;28;20048;-79
2023/03/04 02:31:26;;;;;;;5.80;2.40;;;-0.20;99.90;;;;;;5071054;28;20041;-80
2023/03/04 02:33:57;;;;;;;4.10;2.47;;;-0.20;99.90;;;;;;5053129;28;20071;-81
2023/03/04 02:36:28;;;;;;;6.15;2.50;;;-0.20;99.90;;;;;;5068488;28;20044;-81
2023/03/04 02:39:02;;;;;;;4.10;1.95;;;-0.30;99.90;;;;;;5036090;28;20044;-81
2023/03/04 02:41:32;;;;;;;6.80;2.05;;;-0.30;99.90;;;;;;5053305;28;20054;-82
2023/03/04 02:44:00;;;;;;;6.95;2.40;;;-0.20;99.90;;;;;;5070680;28;20040;-80
2023/03/04 02:46:28;;;;;;;4.88;2.10;;;-0.20;99.90;;;;;;5069848;28;20097;-80
2023/03/04 02:48:56;;;;;;;6.57;2.80;;;-0.20;99.90;;;;;;5062128;28;20048;-80
2023/03/04 02:51:23;;;;;;;3.20;1.95;;;-0.30;99.90;;;;;;5046274;28;20048;-80
2023/03/04 02:53:51;;;;;;;2.00;1.70;;;-0.30;99.90;;;;;;5070978;28;20079;-81
2023/03/04 02:56:18;;;;;;;3.60;1.83;;;-0.20;99.90;;;;;;5070978;28;20496;-81
2023/03/04 02:58:47;;;;;;;2.78;2.10;;;-0.20;99.90;;;;;;5057549;28;20040;-82
2023/03/04 03:01:15;;;;;;;3.72;2.15;;;-0.20;99.90;;;;;;5082722;28;20482;-83
2023/03/04 03:03:42;;;;;;;7.25;2.25;;;-0.20;99.90;;;;;;5074543;28;20122;-81
2023/03/04 03:06:11;;;;;;;6.97;2.30;;;-0.20;99.90;;;;;;5074780;28;20044;-82
2023/03/04 03:08:38;;;;;;;4.25;2.63;;;-0.20;99.90;;;;;;5056901;28;20067;-81
2023/03/04 03:11:06;;;;;;;3.95;2.70;;;-0.20;99.90;;;;;;5060759;28;20142;-81
2023/03/04 03:13:35;;;;;;;5.55;3.35;;;-0.20;99.90;;;;;;5056635;28;20122;-82
2023/03/04 03:16:04;;;;;;;8.57;2.55;;;-0.20;99.90;;;;;;5075609;28;20416;-81
2023/03/04 03:18:31;;;;;;;5.22;2.83;;;-0.30;99.90;;;;;;5072037;28;20102;-79
2023/03/04 03:20:59;;;;;;;6.65;3.17;;;-0.20;99.90;;;;;;5085515;28;20048;-82
2023/03/04 03:23:27;;;;;;;6.32;3.38;;;-0.20;99.90;;;;;;5065359;28;20044;-80
2023/03/04 03:25:54;;;;;;;6.88;2.70;;;-0.20;99.90;;;;;;5092870;28;20060;-82
2023/03/04 03:28:21;;;;;;;5.53;2.83;;;-0.20;99.90;;;;;;5074747;28;20531;-80
2023/03/04 03:30:49;;;;;;;7.15;2.90;;;-0.20;99.90;;;;;;5065385;28;20045;-80
2023/03/04 03:33:18;;;;;;;9.45;3.33;;;-0.20;99.90;;;;;;5055772;28;20041;-80
2023/03/04 03:35:45;;;;;;;7.93;3.22;;;-0.20;99.90;;;;;;5057359;28;20056;-81
2023/03/04 03:38:13;;;;;;;3.83;2.20;;;-0.20;99.90;;;;;;5074000;28;20404;-80
2023/03/04 03:40:40;;;;;;;4.35;2.05;;;-0.20;99.90;;;;;;5074453;28;20043;-81
2023/03/04 03:43:07;;;;;;;3.05;1.92;;;-0.20;99.90;;;;;;5077554;28;20554;-80
2023/03/04 03:45:35;;;;;;;3.97;1.58;;;-0.10;99.90;;;;;;5058410;28;20091;-82
2023/03/04 03:48:02;;;;;;;2.53;1.77;;;-0.20;99.90;;;;;;5071452;28;20055;-81
2023/03/04 03:50:32;;;;;;;7.53;1.60;;;-0.10;99.90;;;;;;5070374;28;20040;-81
2023/03/04 03:52:59;;;;;;;2.88;1.95;;;-0.10;99.90;;;;;;5058862;28;20040;-80
2023/03/04 03:55:27;;;;;;;5.25;1.30;;;-0.10;99.90;;;;;;5078207;28;20051;-79
2023/03/04 03:57:55;;;;;;;2.03;1.30;;;-0.10;99.90;;;;;;5067764;28;20055;-80
2023/03/04 04:00:23;;;;;;;3.10;1.05;;;-0.10;99.90;;;;;;5090394;28;20075;-81
2023/03/04 04:02:50;;;;;;;2.38;1.23;;;-0.10;99.90;;;;;;5073470;28;20067;-81
2023/03/04 04:05:18;;;;;;;0.95;0.95;;;0.00;99.90;;;;;;5054790;28;20459;-80
2023/03/04 04:07:46;;;;;;;2.33;1.35;;;0.00;99.90;;;;;;5067927;28;20115;-82
2023/03/04 04:10:14;;;;;;;3.75;1.60;;;0.00;99.90;;;;;;5074904;28;20160;-81
2023/03/04 04:12:41;;;;;;;1.50;1.20;;;-0.10;99.90;;;;;;5075048;28;20523;-80
2023/03/04 04:15:12;;;;;;;3.20;1.50;;;-0.10;99.90;;;;;;5047481;28;20052;-81
2023/03/04 04:17:40;;;;;;;1.60;1.15;;;-0.10;99.90;;;;;;5082466;28;20053;-80
2023/03/04 04:20:09;;;;;;;2.33;1.30;;;-0.20;99.90;;;;;;5065504;28;20523;-81
2023/03/04 04:22:37;;;;;;;1.98;1.40;;;-0.20;99.90;;;;;;5083513;28;21746;-82
2023/03/04 04:25:09;;;;;;;4.90;1.35;;;-0.20;99.90;;;;;;5102394;28;20639;-81
2023/03/04 04:27:37;;;;;;;4.43;1.35;;;-0.10;99.90;;;;;;5104081;28;20058;-81
2023/03/04 04:30:06;;;;;;;2.78;1.20;;;-0.20;99.90;;;;;;5075146;28;20048;-80
2023/03/04 04:32:34;;;;;;;4.10;1.15;;;-0.20;99.90;;;;;;5077999;28;20501;-76
2023/03/04 04:35:01;;;;;;;1.63;1.10;;;-0.20;99.90;;;;;;5060861;28;20121;-80
2023/03/04 04:37:30;;;;;;;2.88;1.10;;;-0.20;99.90;;;;;;5070465;28;20071;-82
2023/03/04 04:39:58;;;;;;;1.83;1.45;;;-0.20;99.90;;;;;;5072176;28;20067;-81
2023/03/04 04:42:29;;;;;;;5.55;2.13;;;-0.30;99.90;;;;;;5089537;28;20523;-82
2023/03/04 04:44:58;;;;;;;4.80;1.65;;;-0.30;99.90;;;;;;5055253;28;20087;-83
2023/03/04 04:47:25;;;;;;;2.75;1.58;;;-0.30;99.90;;;;;;5062718;28;20048;-83
2023/03/04 04:49:53;;;;;;;5.22;1.42;;;-0.30;99.90;;;;;;5081008;28;20480;-83
2023/03/04 04:52:23;;;;;;;2.72;1.50;;;-0.20;99.90;;;;;;5082063;28;20052;-83
2023/03/04 04:54:54;;;;;;;2.65;2.05;;;-0.20;99.90;;;;;;5048603;28;20465;-85
2023/03/04 04:57:22;;;;;;;5.18;2.17;;;-0.20;99.90;;;;;;5074046;28;20055;-86
2023/03/04 04:59:51;;;;;;;2.88;2.22;;;-0.20;99.90;;;;;;5063797;28;20048;-79
2023/03/04 05:02:19;;;;;;;3.55;2.20;;;-0.20;99.90;;;;;;5081154;28;20059;-77
2023/03/04 05:04:46;;;;;;;5.88;3.47;;;-0.20;99.90;;;;;;5083104;28;20428;-81
2023/03/04 05:07:14;;;;;;;6.63;3.17;;;-0.20;99.90;;;;;;5074207;28;20068;-81
2023/03/04 05:09:42;;;;;;;5.22;3.70;;;-0.20;99.90;;;;;;5072731;28;20040;-83
2023/03/04 05:12:09;;;;;;;4.40;2.55;;;-0.10;99.90;;;;;;5082569;28;20558;-74
2023/03/04 05:14:37;;;;;;;6.18;3.03;;;0.00;99.90;;;;;;5063955;28;20079;-82
2023/03/04 05:17:06;;;;;;;5.32;3.38;;;0.00;99.90;;;;;;5080132;28;20041;-78
2023/03/04 05:19:35;;;;;;;5.20;3.40;;;0.10;99.90;;;;;;5105492;28;20076;-78
2023/03/04 05:22:03;;;;;;;5.45;3.20;;;0.10;99.90;;;;;;5074040;28;20048;-77
2023/03/04 05:24:31;;;;;;;3.60;2.95;;;0.10;99.90;;;;;;5069097;28;20040;-79
2023/03/04 05:26:58;;;;;;;4.57;3.05;;;0.10;99.90;;;;;;5072270;28;20037;-78
2023/03/04 05:29:26;;;;;;;5.32;3.05;;;0.00;99.90;;;;;;5066991;28;20036;-80
2023/03/04 05:31:54;;;;;;;6.15;3.30;;;0.00;99.90;;;;;;5074091;28;20048;-80
2023/03/04 05:34:23;;;;;;;5.45;3.22;;;0.00;99.90;;;;;;5068746;28;20032;-79
2023/03/04 05:36:50;;;;;;;6.05;3.05;;;0.00;99.90;;;;;;5089206;28;20059;-78
2023/03/04 05:39:18;;;;;;;6.80;3.45;;;0.10;99.90;;;;;;5089813;28;20044;-78
2023/03/04 05:41:45;;;;;;;7.20;3.55;;;0.10;99.90;;;;;;5089902;28;20058;-77
2023/03/04 05:44:13;;;;;;;15.05;7.07;;;0.20;99.90;;;;;;5085339;28;20033;-77
2023/03/04 05:46:40;;;;;;;6.28;2.97;;;0.20;99.90;;;;;;5069870;28;20523;-78
2023/03/04 05:49:08;;;;;;;8.43;2.60;;;0.20;99.90;;;;;;5069794;28;20046;-78
2023/03/04 05:51:37;;;;;;;12.38;3.50;;;0.30;99.90;;;;;;5070087;28;20122;-79
2023/03/04 05:54:06;;;;;;;5.25;3.00;;;0.30;99.90;;;;;;5071379;28;20044;-77
2023/03/04 05:56:34;;;;;;;6.05;2.60;;;0.40;99.90;;;;;;5071581;28;20072;-77
2023/03/04 05:59:01;;;;;;;3.13;2.30;;;0.40;99.90;;;;;;5080690;28;20048;-77
2023/03/04 06:01:30;;;;;;;6.70;2.88;;;0.50;99.90;;;;;;5073883;28;20056;-76
2023/03/04 06:03:57;;;;;;;10.32;3.28;;;0.50;99.90;;;;;;5064153;28;20051;-78
2023/03/04 06:06:25;;;;;;;6.70;2.35;;;0.60;99.90;;;;;;5075942;28;20066;-80
2023/03/04 06:08:54;;;;;;;7.57;3.00;;;0.60;99.90;;;;;;5092316;28;20039;-79
2023/03/04 06:11:22;;;;;;;6.95;2.78;;;0.60;99.90;;;;;;5081190;28;20059;-84
2023/03/04 06:13:50;;;;;;;3.97;2.42;;;0.60;99.90;;;;;;5093328;28;20052;-85
2023/03/04 06:16:18;;;;;;;4.05;2.67;;;0.60;99.90;;;;;;5086514;28;20052;-81
2023/03/04 06:18:45;;;;;;;6.30;3.08;;;0.60;99.90;;;;;;5084301;28;20048;-78
2023/03/04 06:21:13;;;;;;;7.10;3.03;;;0.60;99.90;;;;;;5072037;28;20055;-78
2023/03/04 06:23:41;;;;;;;12.23;4.07;;;0.60;99.90;;;;;;5072675;28;20043;-79
2023/03/04 06:26:14;;;;;;;7.53;3.15;;;0.80;99.90;;;;;;5086641;28;20516;-77
2023/03/04 06:28:42;;;;;;;8.25;2.90;;;0.80;99.90;;;;;;5055319;28;20049;-78
2023/03/04 06:31:09;;;;;;;6.53;3.72;;;0.80;99.90;;;;;;5066271;28;20039;-77
2023/03/04 06:33:37;;;;;;;6.68;2.70;;;0.90;99.90;;;;;;5069525;28;20097;-82
2023/03/04 06:36:08;;;;;;;5.32;2.65;;;0.90;99.90;;;;;;5091591;28;20063;-80
2023/03/04 06:38:36;;;;;;;5.78;2.85;;;1.00;99.90;;;;;;5072338;28;20149;-78
2023/03/04 06:41:08;;;;;;;2.88;2.53;;;1.10;99.90;;;;;;5091385;28;20075;-77
2023/03/04 06:43:37;;;;;;;5.38;3.20;;;1.10;99.90;;;;;;5091679;28;20068;-77
2023/03/04 06:46:05;;;;;;;8.20;5.18;;;1.20;99.90;;;;;;5091567;28;20098;-79
2023/03/04 06:48:33;;;;;;;8.18;3.15;;;1.20;99.90;;;;;;5082001;28;20075;-80
2023/03/04 06:51:06;;;;;;;8.77;3.45;;;1.30;99.90;;;;;;5062491;28;20040;-80
2023/03/04 06:53:34;;;;;;;9.23;3.47;;;1.40;99.90;;;;;;5072024;28;20052;-82
2023/03/04 06:56:14;;;;;;;4.25;3.80;;;1.40;99.90;;;;;;5058570;28;20054;-79
2023/03/04 06:58:44;;;;;;;5.25;2.95;;;1.60;99.90;;;;;;5085272;28;20037;-83
2023/03/04 07:01:14;;;;;;;5.13;2.90;;;1.70;99.90;;;;;;5086048;28;20052;-83
2023/03/04 07:04:09;;;;;;;9.18;3.72;;;1.90;99.90;;;;;;5076493;28;20048;-87
2023/03/04 07:07:01;;;;;;;4.10;3.33;;;2.00;99.90;;;;;;5100877;28;20044;-85
2023/03/04 07:09:34;;;;;;;10.73;3.90;;;2.00;99.90;;;;;;5078583;28;20420;-84
2023/03/04 07:12:02;;;;;;;6.50;3.35;;;2.10;99.90;;;;;;5069617;28;20044;-83
2023/03/04 07:14:31;;;;;;;6.82;3.03;;;2.10;99.90;;;;;;5078348;28;20044;-85
2023/03/04 07:16:59;;;;;;;5.53;3.45;;;2.20;99.90;;;;;;5068310;28;20535;-85
2023/03/04 07:19:26;;;;;;;7.95;3.22;;;2.20;99.90;;;;;;5063637;28;20082;-83
2023/03/04 07:21:56;;;;;;;10.00;3.50;;;2.30;99.90;;;;;;5078405;28;20071;-85
2023/03/04 07:24:24;;;;;;;6.90;3.35;;;2.40;99.90;;;;;;5087209;28;20450;-80
2023/03/04 07:26:52;;;;;;;7.00;3.35;;;2.40;99.90;;;;;;5069512;28;20052;-78
2023/03/04 07:29:23;;;;;;;6.28;4.07;;;2.40;99.90;;;;;;5081660;28;20057;-79
2023/03/04 07:31:52;;;;;;;7.38;3.53;;;2.50;99.90;;;;;;5084431;28;20090;-81
2023/03/04 07:34:30;;;;;;;6.68;3.05;;;2.60;99.90;;;;;;5076070;28;20052;-80
2023/03/04 07:37:01;;;;;;;8.48;3.65;;;2.60;99.90;;;;;;5058223;28;20140;-79
2023/03/04 07:39:31;;;;;;;3.67;2.67;;;2.60;99.90;;;;;;5069902;28;20139;-78
2023/03/04 07:42:00;;;;;;;10.30;4.28;;;2.60;99.90;;;;;;5092967;28;20105;-78
2023/03/04 07:44:32;;;;;;;7.65;3.15;;;2.70;99.90;;;;;;5075168;28;20076;-78
2023/03/04 07:47:02;;;;;;;9.18;3.55;;;2.80;99.90;;;;;;5079546;28;20091;-78
2023/03/04 07:49:29;;;;;;;6.70;3.42;;;3.00;99.90;;;;;;5092649;28;20507;-77
2023/03/04 07:51:57;;;;;;;10.07;3.97;;;3.10;99.90;;;;;;5054759;28;20070;-86
2023/03/04 07:54:42;;;;;;;5.93;3.60;;;3.30;99.90;;;;;;5084110;28;20084;-85
2023/03/04 07:57:11;;;;;;;8.27;3.40;;;3.40;99.90;;;;;;5075748;28;20079;-79
2023/03/04 07:59:39;;;;;;;5.47;3.40;;;3.40;99.90;;;;;;5086291;28;20044;-81
2023/03/04 08:02:12;;;;;;;8.43;4.05;;;3.30;99.90;;;;;;5072391;28;20051;-80
2023/03/04 08:04:40;;;;;;;6.55;3.05;;;3.40;99.90;;;;;;5080266;28;20048;-85
2023/03/04 08:07:07;;;;;;;9.77;3.58;;;3.50;99.90;;;;;;5074903;28;20115;-88
2023/03/04 08:09:36;;;;;;;7.53;3.13;;;3.60;99.90;;;;;;5085857;28;20048;-84
2023/03/04 08:12:05;;;;;;;6.68;4.05;;;3.70;99.90;;;;;;5082841;28;20040;-81
2023/03/04 08:14:32;;;;;;;6.78;3.38;;;3.80;99.90;;;;;;5093601;28;20175;-78
2023/03/04 08:17:03;;;;;;;6.63;3.40;;;3.80;99.90;;;;;;5078288;28;20067;-79
2023/03/04 08:19:33;;;;;;;3.55;2.85;;;3.90;99.90;;;;;;5070902;28;20052;-74
2023/03/04 08:22:06;;;;;;;6.20;3.70;;;3.90;99.90;;;;;;5080023;28;20061;-85
2023/03/04 08:24:36;;;;;;;4.13;3.20;;;3.60;99.90;;;;;;5074755;28;20052;-85
2023/03/04 08:27:04;;;;;;;4.60;3.35;;;3.50;99.90;;;;;;5068649;28;20060;-83
2023/03/04 08:29:35;;;;;;;6.40;3.88;;;3.60;99.90;;;;;;5089391;28;20048;-87
2023/03/04 08:32:02;;;;;;;6.72;3.55;;;3.70;99.90;;;;;;5097724;28;20072;-87
2023/03/04 08:34:31;;;;;;;8.63;3.55;;;3.80;99.90;;;;;;5079130;28;20040;-85
2023/03/04 08:37:00;;;;;;;5.70;3.65;;;4.00;99.90;;;;;;5092539;28;20050;-86
2023/03/04 08:39:28;;;;;;;6.93;3.42;;;4.00;99.90;;;;;;5088166;28;20040;-85
2023/03/04 08:41:56;;;;;;;8.88;3.33;;;4.10;99.90;;;;;;5086991;28;20059;-84
2023/03/04 08:44:23;;;;;;;7.80;4.13;;;4.20;99.90;;;;;;5092574;28;20052;-78
2023/03/04 08:46:50;;;;;;;5.75;3.05;;;4.20;99.90;;;;;;5082132;28;20079;-78
2023/03/04 08:49:18;;;;;;;3.85;2.83;;;4.20;99.90;;;;;;5076097;28;20053;-79
2023/03/04 08:51:45;;;;;;;6.82;3.47;;;4.30;99.90;;;;;;5072505;28;20152;-79
2023/03/04 08:54:14;;;;;;;7.90;3.28;;;4.30;99.90;;;;;;5070631;28;20048;-80
2023/03/04 08:56:43;;;;;;;5.07;3.42;;;4.40;99.90;;;;;;5085213;28;20078;-81
2023/03/04 08:59:21;;;;;;;4.78;3.47;;;4.40;99.90;;;;;;5073965;28;20062;-78
2023/03/04 09:01:53;;;;;;;6.38;3.63;;;4.50;99.90;;;;;;5078234;28;20052;-80
2023/03/04 09:04:21;;;;;;;5.22;2.95;;;4.60;99.90;;;;;;5062628;28;20048;-81
2023/03/04 09:06:48;;;;;;;4.00;3.03;;;4.80;99.90;;;;;;5051363;28;20512;-81
2023/03/04 09:09:18;;;;;;;5.82;3.38;;;4.90;99.90;;;;;;5079329;28;20080;-81
2023/03/04 09:11:45;;;;;;;3.75;3.10;;;5.00;99.90;;;;;;5091957;28;20393;-79
2023/03/04 09:14:13;;;;;;;4.70;2.78;;;5.10;99.90;;;;;;5091951;28;20048;-81
2023/03/04 09:16:40;;;;;;;4.53;2.75;;;5.10;99.90;;;;;;5092073;28;20052;-80
2023/03/04 09:19:08;;;;;;;4.60;3.28;;;5.00;99.90;;;;;;5092057;28;20052;-80
2023/03/04 09:21:35;;;;;;;5.18;3.25;;;4.90;99.90;;;;;;5007528;28;20052;-80
2023/03/04 09:24:04;;;;;;;3.45;2.80;;;4.90;99.90;;;;;;5051643;28;20052;-80
2023/03/04 09:26:33;;;;;;;7.65;3.00;;;4.90;99.90;;;;;;5051768;28;20049;-80
2023/03/04 09:29:05;;;;;;;4.35;2.83;;;4.90;99.90;;;;;;5042165;28;20053;-79
2023/03/04 09:31:33;;;;;;;5.03;2.97;;;4.80;99.90;;;;;;5042979;28;20056;-80
2023/03/04 09:34:01;;;;;;;6.25;3.30;;;4.90;99.90;;;;;;5031205;28;20299;-80
2023/03/04 09:36:28;;;;;;;7.13;3.20;;;5.10;99.90;;;;;;5031516;28;20420;-79
2023/03/04 09:38:59;;;;;;;5.35;3.22;;;5.50;99.90;;;;;;5032730;28;20084;-80
2023/03/04 09:41:37;;;;;;;2.67;2.45;;;6.00;99.90;;;;;;5033976;28;20049;-77
2023/03/04 09:44:17;;;;;;;2.95;2.58;;;6.30;99.90;;;;;;5023636;28;20049;-80
2023/03/04 09:46:46;;;;;;;2.42;2.00;;;6.40;99.90;;;;;;5045103;28;20053;-79
2023/03/04 09:49:15;;;;;;;4.32;2.10;;;6.40;99.90;;;;;;5051874;28;20191;-79
2023/03/04 09:51:59;;;;;;;4.15;2.35;;;6.40;99.90;;;;;;5038204;28;20034;-78
2023/03/04 09:54:47;;;;;;;5.05;2.75;;;6.40;99.90;;;;;;5035765;28;20045;-78
2023/03/04 09:57:27;;;;;;;3.38;1.67;;;6.60;99.90;;;;;;5013942;28;20048;-81
2023/03/04 10:00:07;;;;;;;4.05;2.10;;;6.70;99.90;;;;;;5021775;28;20523;-78
2023/03/04 10:02:51;;;;;;;2.88;1.98;;;6.80;99.90;;;;;;5039085;28;20072;-79
2023/03/04 10:05:23;;;;;;;3.08;1.90;;;7.00;99.90;;;;;;5031949;28;20135;-81
2023/03/04 10:08:00;;;;;;;6.45;1.88;;;7.20;99.90;;;;;;5043122;28;20083;-81
2023/03/04 10:10:32;;;;;;;;;;;7.40;99.90;;;;;;5031130;28;20049;-84
2023/03/04 10:13:06;;;;;;;3.78;1.55;;;7.80;99.90;;;;;;5045026;28;19967;-82
2023/03/04 10:15:38;;;;;;;2.20;1.70;;;8.30;99.90;;;;;;5037954;28;20049;-84
2023/03/04 10:18:18;;;;;;;2.57;1.87;;;8.70;99.90;;;;;;5024636;28;20081;-84
2023/03/04 10:21:00;;;;;;;2.42;1.55;;;8.90;99.90;;;;;;5041737;28;20480;-86
2023/03/04 10:23:31;;;;;;;2.78;1.20;;;9.00;99.90;;;;;;5032621;28;20144;-83
2023/03/04 10:26:02;;;;;;;2.22;1.20;;;8.80;99.90;;;;;;5050297;28;20063;-83
2023/03/04 10:28:32;;;;;;;4.07;1.20;;;8.40;99.90;;;;;;5034587;28;20455;-84
2023/03/04 10:31:09;;;;;;;2.08;1.30;;;8.00;99.90;;;;;;5053057;28;20132;-85
2023/03/04 10:33:40;;;;;;;3.88;1.90;;;7.80;99.90;;;;;;5054017;28;20059;-85
2023/03/04 10:36:32;;;;;;;2.38;1.92;;;7.70;99.90;;;;;;5052666;28;20087;-84
2023/03/04 10:39:03;;;;;;;3.75;2.22;;;7.40;99.90;;;;;;5052140;28;20143;-85
2023/03/04 10:41:33;;;;;;;7.70;2.67;;;7.10;99.90;;;;;;5045241;28;20032;-85
2023/03/04 10:44:16;;;;;;;3.50;2.35;;;6.90;99.90;;;;;;5032306;28;20111;-85
2023/03/04 10:46:46;;;;;;;4.50;2.13;;;6.80;99.90;;;;;;5046109;28;20060;-87
2023/03/04 10:49:17;;;;;;;3.85;2.20;;;6.70;99.90;;;;;;5053170;28;20597;-79
2023/03/04 10:51:46;;;;;;;6.30;2.30;;;6.60;99.90;;;;;;5051861;28;20056;-80
2023/03/04 10:54:26;;;;;;;3.47;1.92;;;6.50;99.90;;;;;;5050645;28;20451;-79
2023/03/04 10:57:00;;;;;;;3.10;2.05;;;6.40;99.90;;;;;;5051775;28;20064;-84
2023/03/04 10:59:52;;;;;;;4.38;1.92;;;6.50;99.90;;;;;;5023771;28;20065;-86
2023/03/04 11:02:27;;;;;;;4.60;1.88;;;6.50;99.90;;;;;;5000717;28;20076;-84
2023/03/04 11:05:16;;;;;;;2.17;1.60;;;6.50;99.90;;;;;;5038215;28;20050;-86
2023/03/04 11:07:50;;;;;;;6.25;2.00;;;6.50;99.90;;;;;;5029692;28;20057;-86
2023/03/04 11:10:21;;;;;;;3.50;1.73;;;6.20;99.90;;;;;;5038242;28;20516;-88
2023/03/04 11:12:51;;;;;;;3.10;1.60;;;6.10;99.90;;;;;;5038465;28;20041;-84
2023/03/04 11:15:26;;;;;;;4.05;1.60;;;5.90;99.90;;;;;;5033470;28;20057;-88
2023/03/04 11:17:57;;;;;;;3.08;1.85;;;5.80;99.90;;;;;;5034623;28;20052;-90
2023/03/04 11:20:33;;;;;;;2.65;1.20;;;5.80;99.90;;;;;;5052918;28;20056;-88
2023/03/04 11:23:06;;;;;;;3.92;1.30;;;5.70;99.90;;;;;;5025102;28;21175;-88
2023/03/04 11:25:36;;;;;;;1.90;1.55;;;5.60;99.90;;;;;;5036292;28;20425;-87
2023/03/04 11:28:12;;;;;;;2.03;1.50;;;5.40;99.90;;;;;;5044154;28;20045;-86
2023/03/04 11:30:45;;;;;;;1.92;1.05;;;5.30;99.90;;;;;;5050343;28;20053;-86
2023/03/04 11:33:21;;;;;;;3.17;1.35;;;5.20;99.90;;;;;;5054066;28;20214;-88
2023/03/04 11:35:59;;;;;;;1.85;1.13;;;5.20;99.90;;;;;;5055678;28;20390;-89
2023/03/04 11:38:33;;;;;;;2.47;0.88;;;5.20;99.90;;;;;;5035854;28;20041;-89
2023/03/04 11:41:07;;;;;;;0.90;0.57;;;5.30;99.90;;;;;;5033190;28;20053;-86
2023/03/04 11:43:37;;;;;;;1.75;1.15;;;5.30;99.90;;;;;;5049291;28;20060;-84
2023/03/04 11:46:57;;;;;;;1.55;0.75;;;5.40;99.90;;;;;;5042677;28;20053;-87
2023/03/04 11:50:12;;;;;;;2.72;0.70;;;5.50;99.90;;;;;;5049917;28;20057;-88
2023/03/04 11:53:15;;;;;;;3.70;0.93;;;5.60;99.90;;;;;;5051480;28;20051;-86
2023/03/04 11:55:51;;;;;;;3.33;1.20;;;5.70;99.90;;;;;;5040683;28;20160;-87
2023/03/04 11:59:07;;;;;;;3.20;1.70;;;6.00;99.90;;;;;;5039115;28;20146;-86
2023/03/04 12:01:44;;;;;;;3.33;1.48;;;6.50;99.90;;;;;;5008025;28;20517;-82
2023/03/04 12:04:37;;;;;;;3.45;2.08;;;7.60;99.90;;;;;;5054171;28;20053;-81
2023/03/04 12:07:20;;;;;;;8.00;2.10;;;8.60;99.90;;;;;;5015935;28;20069;-82
2023/03/04 12:10:01;;;;;;;4.85;2.13;;;8.70;99.90;;;;;;5037328;28;20049;-83
2023/03/04 12:12:52;;;;;;;5.40;2.38;;;8.30;99.90;;;;;;5026626;28;20052;-87
2023/03/04 12:15:27;;;;;;;10.82;2.35;;;7.80;99.90;;;;;;5034285;28;20417;-86
2023/03/04 12:18:12;;;;;;;4.20;2.10;;;7.50;99.90;;;;;;5044302;28;20044;-87
2023/03/04 12:21:17;;;;;;;3.88;1.50;;;7.10;99.90;;;;;;5042782;28;20083;-87
2023/03/04 12:24:26;;;;;;;4.07;1.77;;;6.80;99.90;;;;;;5030882;28;20500;-87
2023/03/04 12:27:00;;;;;;;5.18;2.00;;;6.60;99.90;;;;;;5035390;28;20076;-86
2023/03/04 12:29:38;;;;;;;5.45;1.73;;;6.50;99.90;;;;;;5020113;28;20100;-86
2023/03/04 12:32:21;;;;;;;4.93;2.15;;;6.40;99.90;;;;;;5035389;28;20737;-89
2023/03/04 12:35:29;;;;;;;7.82;1.90;;;6.70;99.90;;;;;;5046989;28;20041;-77
2023/03/04 12:38:25;;;;;;;4.30;2.47;;;7.10;99.90;;;;;;5048982;28;20420;-77
2023/03/04 12:41:06;;;;;;;2.95;2.05;;;8.00;99.90;;;;;;5030074;28;20103;-77
2023/03/04 12:43:43;;;;;;;5.53;2.38;;;8.50;99.90;;;;;;5040461;28;20598;-78
2023/03/04 12:46:28;;;;;;;3.60;1.80;;;8.30;99.90;;;;;;5046365;28;20066;-77
2023/03/04 12:49:21;;;;;;;5.15;2.13;;;8.00;99.90;;;;;;5046579;28;20049;-77
2023/03/04 12:52:07;;;;;;;3.63;1.85;;;7.50;99.90;;;;;;5032650;28;20051;-77
2023/03/04 12:54:40;;;;;;;10.98;1.90;;;7.20;99.90;;;;;;5046052;28;20524;-77
2023/03/04 12:57:13;;;;;;;4.88;1.60;;;6.90;99.90;;;;;;5048756;28;20083;-78
2023/03/04 12:59:49;;;;;;;5.43;1.73;;;6.80;99.90;;;;;;5044913;28;20049;-78
2023/03/04 13:02:46;;;;;;;4.80;1.95;;;7.00;99.90;;;;;;5022487;28;20596;-78
2023/03/04 13:05:44;;;;;;;5.20;1.50;;;7.00;99.90;;;;;;5001873;28;20049;-79
2023/03/04 13:08:30;;;;;;;3.15;1.95;;;7.00;99.90;;;;;;5046012;28;20051;-77
2023/03/04 13:11:03;;;;;;;3.22;1.83;;;7.20;99.90;;;;;;5030955;28;20117;-79
2023/03/04 13:13:42;;;;;;;3.30;2.58;;;7.80;99.90;;;;;;5050022;28;20041;-85
2023/03/04 13:16:31;;;;;;;2.28;1.60;;;8.50;99.90;;;;;;5042194;28;20052;-86